London Express — DPLE — position and weather

sailwx.info

Track history (hours):
 
Tides and Currents Weather Stations Pressure Air Temp Water Temp Dewpoint Dewpoint Depression Visibility Wind Speed Wind Dir Waves Ship Positions

London Express

Last reported at 2015-Mar-04 08:33 UTC. Time now 2015-Mar-04 08:38 UTC.
Position N 53°52' E 007°11'.

Length 294 m; beam 32.3 m; draft 13.6 m.

Type: Ship. MMSI: 211262630.

Date/timePositionNaut miles runAvg speedWind from/ knotsBaromVisibWave heightAir tempDewpointWater temp
2015-Mar-04 08:33N 53°52' E 007°11'3416.7
2015-Mar-04 06:30N 53°44' E 006°14'1616.6
2015-Mar-04 05:33N 53°39' E 005°49'1716.9
2015-Mar-04 04:33N 53°34' E 005°22'1716.9
2015-Mar-04 03:33N 53°28' E 004°55'1616.1
2015-Mar-04 02:33N 53°16' E 004°37'1916.3
2015-Mar-04 01:24N 52°60' E 004°21'1315.7
2015-Mar-04 00:33N 52°48' E 004°11'2115.4
2015-Mar-03 23:12N 52°33' E 003°48'1115.1
2015-Mar-03 22:29N 52°24' E 003°36'2114.5
2015-Mar-03 21:04N 52°05' E 003°24'914.0
2015-Mar-03 20:24N 51°57' E 003°19'1213.5
2015-Mar-03 19:31N 51°45' E 003°16'1010.4
2015-Mar-03 18:33N 51°35' E 003°10'1212.0
2015-Mar-03 17:33N 51°25' E 003°01'1616.1
2015-Mar-03 16:33N 51°25' E 003°26'1010.2
2015-Mar-03 15:34N 51°24' E 003°43'1111.5
2015-Mar-03 14:34N 51°26' E 004°01'9 9.5
2015-Mar-03 13:33N 51°21' E 004°14'2 2.2
2015-Mar-03 12:33N 51°20' E 004°17'0 0.0
2015-Mar-03 11:33N 51°20' E 004°17'0 0.0
2015-Mar-03 10:33N 51°20' E 004°17'0 0.0
2015-Mar-03 09:34N 51°20' E 004°17'0 0.0
2015-Mar-03 08:33N 51°20' E 004°17'0 0.0
2015-Mar-03 07:33N 51°20' E 004°17'0 0.0
2015-Mar-03 06:33N 51°20' E 004°17'0 0.0
2015-Mar-03 05:33N 51°20' E 004°17'0 0.0
2015-Mar-03 04:33N 51°20' E 004°17'0 0.0
2015-Mar-03 03:33N 51°20' E 004°17'0 0.0
2015-Mar-03 02:33N 51°20' E 004°17'0 0.0
2015-Mar-03 01:33N 51°20' E 004°17'0 0.0
2015-Mar-03 00:32N 51°20' E 004°17'0 0.0
2015-Mar-02 23:33N 51°20' E 004°17'0 0.0
2015-Mar-02 22:33N 51°20' E 004°17'0 0.0
2015-Mar-02 21:33N 51°20' E 004°17'0 0.0
2015-Mar-02 20:33N 51°20' E 004°17'0 0.0
2015-Mar-02 19:34N 51°20' E 004°17'0 0.0
2015-Mar-02 18:33N 51°20' E 004°17'0 0.0
2015-Mar-02 17:33N 51°20' E 004°17'0 0.0
2015-Mar-02 16:33N 51°20' E 004°17'0 0.0
2015-Mar-02 15:34N 51°20' E 004°17'0 0.0
2015-Mar-02 14:33N 51°20' E 004°17'0 0.0
2015-Mar-02 13:33N 51°20' E 004°17'0 0.0
2015-Mar-02 12:34N 51°20' E 004°17'5 4.7
2015-Mar-02 11:33N 51°24' E 004°12'9 9.2
2015-Mar-02 10:33N 51°24' E 003°57'9 9.4
2015-Mar-02 09:34N 51°25' E 003°42'1110.7
2015-Mar-02 08:33N 51°25' E 003°25'1312.7
2015-Mar-02 07:33N 51°24' E 003°05'1212.3
2015-Mar-02 06:33N 51°22' E 002°46'5 5.1
2015-Mar-02 05:33N 51°25' E 002°40'1 0.8
2015-Mar-02 04:30N 51°26' E 002°39'0 0.0
2015-Mar-02 03:30N 51°26' E 002°39'0 0.0
2015-Mar-02 02:30N 51°26' E 002°39'0 0.1
2015-Mar-02 01:32N 51°26' E 002°39'0 0.0
2015-Mar-02 00:32N 51°26' E 002°39'0 0.0
2015-Mar-01 23:31N 51°26' E 002°39'0 0.0
2015-Mar-01 22:31N 51°26' E 002°39'0 0.0
2015-Mar-01 21:33N 51°26' E 002°39'0 0.1
2015-Mar-01 20:33N 51°26' E 002°39'0 0.1
2015-Mar-01 19:33N 51°26' E 002°39'0 0.1
2015-Mar-01 18:11N 51°26' E 002°39'0 0.0
2015-Mar-01 17:29N 51°26' E 002°39'0 0.5
2015-Mar-01 16:33N 51°26' E 002°39'8 8.1
2015-Mar-01 15:33N 51°22' E 002°28'1010.0
2015-Mar-01 14:33N 51°16' E 002°14'1110.8
2015-Mar-01 13:33N 51°11' E 001°59'1111.2
2015-Mar-01 12:33N 51°05' E 001°44'1313.5
2015-Mar-01 11:34N 50°55' E 001°30'5212.4
2015-Mar-01 07:20N 50°25' E 000°23'3913.4
2015-Mar-01 04:26N 50°29' W 000°38'1213.2
2015-Mar-01 03:33N 50°36' W 000°52'1111.2
2015-Mar-01 02:34N 50°44' W 001°04'1111.3
2015-Mar-01 01:33N 50°50' W 001°19'6 6.3
2015-Mar-01 00:33N 50°54' W 001°27'1 0.8
2015-Feb-28 23:33N 50°55' W 001°28'0 0.0
2015-Feb-28 22:33N 50°55' W 001°28'0 0.0
2015-Feb-28 21:33N 50°55' W 001°28'0 0.0
2015-Feb-28 20:32N 50°55' W 001°28'0 0.0
2015-Feb-28 19:32N 50°55' W 001°28'0 0.0
2015-Feb-28 18:31N 50°55' W 001°28'0 0.0
2015-Feb-28 17:31N 50°55' W 001°28'0 0.0
2015-Feb-28 16:34N 50°55' W 001°28'0 0.0
2015-Feb-28 15:31N 50°55' W 001°28'0 0.0
2015-Feb-28 14:31N 50°55' W 001°28'0 0.0
2015-Feb-28 13:31N 50°55' W 001°28'0 0.0
2015-Feb-28 12:33N 50°55' W 001°28'0 0.0
2015-Feb-28 11:33N 50°55' W 001°28'0 0.0
2015-Feb-28 10:32N 50°55' W 001°28'0 0.0
2015-Feb-28 09:32N 50°55' W 001°28'0 0.0
2015-Feb-28 08:31N 50°55' W 001°28'0 0.0
2015-Feb-28 07:31N 50°55' W 001°28'0 0.0
2015-Feb-28 06:31N 50°55' W 001°28'0 0.0
2015-Feb-28 05:33N 50°55' W 001°28'0 0.0
2015-Feb-28 04:33N 50°55' W 001°28'0 0.0
2015-Feb-28 03:32N 50°55' W 001°28'2 1.6
2015-Feb-28 02:33N 50°54' W 001°25'8 7.9
2015-Feb-28 01:34N 50°48' W 001°19'1312.6
2015-Feb-28 00:34N 50°43' W 000°60'7 7.2
2015-Feb-27 23:33N 50°36' W 000°59'10 9.9
2015-Feb-27 22:34N 50°28' W 001°08'1110.5
2015-Feb-27 21:32N 50°25' W 001°24'1210.6
2015-Feb-27 20:23N 50°23' W 001°43'1010.7
2015-Feb-27 19:25N 50°21' W 001°59'1011.3
2015-Feb-27 18:34N 50°19' W 002°14'3912.4
2015-Feb-27 15:26N 50°10' W 003°12'1212.3
2015-Feb-27 14:26N 50°05' W 003°30'9611.3
2015-Feb-27 06:00N 49°30' W 005°48'4816.1 320 / 91024.110.8 1.0 6.3 2.210.0
2015-Feb-27 03:00N 49°18' W 007°00'15417.1 310 / 211024.710.8 8.5 2.611.0
2015-Feb-26 18:00N 48°30' W 010°42'4916.4 310 / 291026.310.8 4.0 9.8 1.912.0
2015-Feb-26 15:00N 48°18' W 011°54'15617.4 310 / 251027.010.8 2.512.4 7.512.0
2015-Feb-26 06:00N 47°30' W 015°36'5217.3 290 / 281025.010.8 9.5 8.912.0
2015-Feb-26 03:00N 47°12' W 016°48'26617.7 290 / 241023.8 2.2 13.812.013.0
2015-Feb-25 12:00N 45°48' W 022°54'10216.9 220 / 301029.3 5.4 2.515.912.113.0
2015-Feb-25 06:00N 45°06' W 025°06'5217.4 220 / 221028.7 5.4 14.212.213.0
2015-Feb-25 03:00N 44°54' W 026°18'16618.4 220 / 251029.510.8 14.411.814.0
2015-Feb-24 18:00N 43°54' W 029°54'5117.0 210 / 221029.0 2.2 1.516.312.814.0
2015-Feb-24 15:00N 43°36' W 031°00'5518.4 220 / 211028.810.8 1.517.514.916.0
2015-Feb-24 12:00N 43°18' W 032°12'10918.2 210 / 221029.710.8 16.413.714.0
2015-Feb-24 06:00N 42°36' W 034°30'5217.3 220 / 171028.010.8 16.614.216.0
2015-Feb-24 03:00N 42°18' W 035°36'27118.1 170 / 331028.0 5.4 16.014.316.0
2015-Feb-23 12:00N 40°48' W 041°18'10116.8 160 / 101033.910.8 16.2 6.618.0
2015-Feb-23 06:00N 40°06' W 043°18'4916.5 150 / 211034.110.8
2015-Feb-23 03:00N 39°48' W 044°18'5418.0 140 / 181035.210.8 14.810.420.0
2015-Feb-23 00:00N 39°30' W 045°24'5217.4 120 / 151037.310.8 12.4 4.418.0
2015-Feb-22 21:00N 39°06' W 046°24'14046.8 080 / 211037.910.8 2.011.6 3.615.0
2015-Feb-22 18:00N 38°54' W 049°24'36 6.1 040 / 211037.710.8 2.013.5 9.620.0
2015-Feb-22 12:00N 38°18' W 049°30'5116.8 050 / 221037.810.8 15.5 7.319.0
2015-Feb-22 09:00N 38°00' W 050°30'   060 / 201035.5 5.4 14.5 8.020.0
Track history (hours):
 
Tides and Currents Weather Stations Pressure Air Temp Water Temp Dewpoint Dewpoint Depression Visibility Wind Speed Wind Dir Waves Ship Positions

London Express

Last reported at 2015-Mar-04 08:33 UTC. Time now 2015-Mar-04 08:38 UTC.
Position N 53°52' E 007°11'.

Length 294 m; beam 32.3 m; draft 13.6 m.

Type: Ship. MMSI: 211262630.

Date/timePositionNaut miles runAvg speedWind from/ knotsBaromVisibWave heightAir tempDewpointWater temp
2015-Mar-04 08:33N 53°52' E 007°11'3416.7
2015-Mar-04 06:30N 53°44' E 006°14'1616.6
2015-Mar-04 05:33N 53°39' E 005°49'1716.9
2015-Mar-04 04:33N 53°34' E 005°22'1716.9
2015-Mar-04 03:33N 53°28' E 004°55'1616.1
2015-Mar-04 02:33N 53°16' E 004°37'1916.3
2015-Mar-04 01:24N 52°60' E 004°21'1315.7
2015-Mar-04 00:33N 52°48' E 004°11'2115.4
2015-Mar-03 23:12N 52°33' E 003°48'1115.1
2015-Mar-03 22:29N 52°24' E 003°36'2114.5
2015-Mar-03 21:04N 52°05' E 003°24'914.0
2015-Mar-03 20:24N 51°57' E 003°19'1213.5
2015-Mar-03 19:31N 51°45' E 003°16'1010.4
2015-Mar-03 18:33N 51°35' E 003°10'1212.0
2015-Mar-03 17:33N 51°25' E 003°01'1616.1
2015-Mar-03 16:33N 51°25' E 003°26'1010.2
2015-Mar-03 15:34N 51°24' E 003°43'1111.5
2015-Mar-03 14:34N 51°26' E 004°01'9 9.5
2015-Mar-03 13:33N 51°21' E 004°14'2 2.2
2015-Mar-03 12:33N 51°20' E 004°17'0 0.0
2015-Mar-03 11:33N 51°20' E 004°17'0 0.0
2015-Mar-03 10:33N 51°20' E 004°17'0 0.0
2015-Mar-03 09:34N 51°20' E 004°17'0 0.0
2015-Mar-03 08:33N 51°20' E 004°17'0 0.0
2015-Mar-03 07:33N 51°20' E 004°17'0 0.0
2015-Mar-03 06:33N 51°20' E 004°17'0 0.0
2015-Mar-03 05:33N 51°20' E 004°17'0 0.0
2015-Mar-03 04:33N 51°20' E 004°17'0 0.0
2015-Mar-03 03:33N 51°20' E 004°17'0 0.0
2015-Mar-03 02:33N 51°20' E 004°17'0 0.0
2015-Mar-03 01:33N 51°20' E 004°17'0 0.0
2015-Mar-03 00:32N 51°20' E 004°17'0 0.0
2015-Mar-02 23:33N 51°20' E 004°17'0 0.0
2015-Mar-02 22:33N 51°20' E 004°17'0 0.0
2015-Mar-02 21:33N 51°20' E 004°17'0 0.0
2015-Mar-02 20:33N 51°20' E 004°17'0 0.0
2015-Mar-02 19:34N 51°20' E 004°17'0 0.0
2015-Mar-02 18:33N 51°20' E 004°17'0 0.0
2015-Mar-02 17:33N 51°20' E 004°17'0 0.0
2015-Mar-02 16:33N 51°20' E 004°17'0 0.0
2015-Mar-02 15:34N 51°20' E 004°17'0 0.0
2015-Mar-02 14:33N 51°20' E 004°17'0 0.0
2015-Mar-02 13:33N 51°20' E 004°17'0 0.0
2015-Mar-02 12:34N 51°20' E 004°17'5 4.7
2015-Mar-02 11:33N 51°24' E 004°12'9 9.2
2015-Mar-02 10:33N 51°24' E 003°57'9 9.4
2015-Mar-02 09:34N 51°25' E 003°42'1110.7
2015-Mar-02 08:33N 51°25' E 003°25'1312.7
2015-Mar-02 07:33N 51°24' E 003°05'1212.3
2015-Mar-02 06:33N 51°22' E 002°46'5 5.1
2015-Mar-02 05:33N 51°25' E 002°40'1 0.8
2015-Mar-02 04:30N 51°26' E 002°39'0 0.0
2015-Mar-02 03:30N 51°26' E 002°39'0 0.0
2015-Mar-02 02:30N 51°26' E 002°39'0 0.1
2015-Mar-02 01:32N 51°26' E 002°39'0 0.0
2015-Mar-02 00:32N 51°26' E 002°39'0 0.0
2015-Mar-01 23:31N 51°26' E 002°39'0 0.0
2015-Mar-01 22:31N 51°26' E 002°39'0 0.0
2015-Mar-01 21:33N 51°26' E 002°39'0 0.1
2015-Mar-01 20:33N 51°26' E 002°39'0 0.1
2015-Mar-01 19:33N 51°26' E 002°39'0 0.1
2015-Mar-01 18:11N 51°26' E 002°39'0 0.0
2015-Mar-01 17:29N 51°26' E 002°39'0 0.5
2015-Mar-01 16:33N 51°26' E 002°39'8 8.1
2015-Mar-01 15:33N 51°22' E 002°28'1010.0
2015-Mar-01 14:33N 51°16' E 002°14'1110.8
2015-Mar-01 13:33N 51°11' E 001°59'1111.2
2015-Mar-01 12:33N 51°05' E 001°44'1313.5
2015-Mar-01 11:34N 50°55' E 001°30'5212.4
2015-Mar-01 07:20N 50°25' E 000°23'3913.4
2015-Mar-01 04:26N 50°29' W 000°38'1213.2
2015-Mar-01 03:33N 50°36' W 000°52'1111.2
2015-Mar-01 02:34N 50°44' W 001°04'1111.3
2015-Mar-01 01:33N 50°50' W 001°19'6 6.3
2015-Mar-01 00:33N 50°54' W 001°27'1 0.8
2015-Feb-28 23:33N 50°55' W 001°28'0 0.0
2015-Feb-28 22:33N 50°55' W 001°28'0 0.0
2015-Feb-28 21:33N 50°55' W 001°28'0 0.0
2015-Feb-28 20:32N 50°55' W 001°28'0 0.0
2015-Feb-28 19:32N 50°55' W 001°28'0 0.0
2015-Feb-28 18:31N 50°55' W 001°28'0 0.0
2015-Feb-28 17:31N 50°55' W 001°28'0 0.0
2015-Feb-28 16:34N 50°55' W 001°28'0 0.0
2015-Feb-28 15:31N 50°55' W 001°28'0 0.0
2015-Feb-28 14:31N 50°55' W 001°28'0 0.0
2015-Feb-28 13:31N 50°55' W 001°28'0 0.0
2015-Feb-28 12:33N 50°55' W 001°28'0 0.0
2015-Feb-28 11:33N 50°55' W 001°28'0 0.0
2015-Feb-28 10:32N 50°55' W 001°28'0 0.0
2015-Feb-28 09:32N 50°55' W 001°28'0 0.0
2015-Feb-28 08:31N 50°55' W 001°28'0 0.0
2015-Feb-28 07:31N 50°55' W 001°28'0 0.0
2015-Feb-28 06:31N 50°55' W 001°28'0 0.0
2015-Feb-28 05:33N 50°55' W 001°28'0 0.0
2015-Feb-28 04:33N 50°55' W 001°28'0 0.0
2015-Feb-28 03:32N 50°55' W 001°28'2 1.6
2015-Feb-28 02:33N 50°54' W 001°25'8 7.9
2015-Feb-28 01:34N 50°48' W 001°19'1312.6
2015-Feb-28 00:34N 50°43' W 000°60'7 7.2
2015-Feb-27 23:33N 50°36' W 000°59'10 9.9
2015-Feb-27 22:34N 50°28' W 001°08'1110.5
2015-Feb-27 21:32N 50°25' W 001°24'1210.6
2015-Feb-27 20:23N 50°23' W 001°43'1010.7
2015-Feb-27 19:25N 50°21' W 001°59'1011.3
2015-Feb-27 18:34N 50°19' W 002°14'3912.4
2015-Feb-27 15:26N 50°10' W 003°12'1212.3
2015-Feb-27 14:26N 50°05' W 003°30'9611.3
2015-Feb-27 06:00N 49°30' W 005°48'4816.1 320 / 91024.110.8 1.0 6.3 2.210.0
2015-Feb-27 03:00N 49°18' W 007°00'15417.1 310 / 211024.710.8 8.5 2.611.0
2015-Feb-26 18:00N 48°30' W 010°42'4916.4 310 / 291026.310.8 4.0 9.8 1.912.0
2015-Feb-26 15:00N 48°18' W 011°54'15617.4 310 / 251027.010.8 2.512.4 7.512.0
2015-Feb-26 06:00N 47°30' W 015°36'5217.3 290 / 281025.010.8 9.5 8.912.0
2015-Feb-26 03:00N 47°12' W 016°48'26617.7 290 / 241023.8 2.2 13.812.013.0
2015-Feb-25 12:00N 45°48' W 022°54'10216.9 220 / 301029.3 5.4 2.515.912.113.0
2015-Feb-25 06:00N 45°06' W 025°06'5217.4 220 / 221028.7 5.4 14.212.213.0
2015-Feb-25 03:00N 44°54' W 026°18'16618.4 220 / 251029.510.8 14.411.814.0
2015-Feb-24 18:00N 43°54' W 029°54'5117.0 210 / 221029.0 2.2 1.516.312.814.0
2015-Feb-24 15:00N 43°36' W 031°00'5518.4 220 / 211028.810.8 1.517.514.916.0
2015-Feb-24 12:00N 43°18' W 032°12'10918.2 210 / 221029.710.8 16.413.714.0
2015-Feb-24 06:00N 42°36' W 034°30'5217.3 220 / 171028.010.8 16.614.216.0
2015-Feb-24 03:00N 42°18' W 035°36'27118.1 170 / 331028.0 5.4 16.014.316.0
2015-Feb-23 12:00N 40°48' W 041°18'10116.8 160 / 101033.910.8 16.2 6.618.0
2015-Feb-23 06:00N 40°06' W 043°18'4916.5 150 / 211034.110.8
2015-Feb-23 03:00N 39°48' W 044°18'5418.0 140 / 181035.210.8 14.810.420.0
2015-Feb-23 00:00N 39°30' W 045°24'5217.4 120 / 151037.310.8 12.4 4.418.0
2015-Feb-22 21:00N 39°06' W 046°24'14046.8 080 / 211037.910.8 2.011.6 3.615.0
2015-Feb-22 18:00N 38°54' W 049°24'36 6.1 040 / 211037.710.8 2.013.5 9.620.0
2015-Feb-22 12:00N 38°18' W 049°30'5116.8 050 / 221037.810.8 15.5 7.319.0
2015-Feb-22 09:00N 38°00' W 050°30'   060 / 201035.5 5.4 14.5 8.020.0

Dump ship's entire track history